Cable, Wisconsin
Current Conditions -  °F | °C
As of 1:53 AM on Thursday 27 Nov 2014 (Local Time) from KHYR Reporting Station
Clear Clear  
Wind Chill:   Ceiling: Unl
Heat Index:   Visibility: 10mi
Dew Point: -2°   Wind: 3mph
Humidity: 83%   Direction: NA
Pressure: 30.37"   Gusts: NA
Location:  46.21°N, 91.29°W
Report Text: KHYR 270753Z AUTO VRB03KT 10SM CLR M17/M19 A3037 RMK AO2 SLP313 T11671189
Loading
Personal Weather Stations






























Interactive Weather Map New forecast layout! Learn more

10-Day Weather Forecast

Advertisements
Track Severe Weather on mobile